Terminal Aerodrome Forecast
Issued by NWS Sterling, VA

Home | Current Version | Previous Version | Text Only | Print | Product List | Glossary On
Versions: 1 2 3 4 5 6 7 8 9 10 11 12 13 14 15 16 17 18 19 20 21 22 23 24 25 26 27 28
000
FTUS41 KLWX 261231 AAA
TAFBWI
TAF AMD
KBWI 261231Z 2613/2718 30013G23KT P6SM FEW160 SCT250
     FM261800 28008KT P6SM BKN250
     FM262300 VRB04KT P6SM SCT090 BKN200
     FM270900 04005KT 5SM -RA BKN025 OVC050
     FM271100 04005KT 3SM -RA BKN008 OVC015=

USA.gov is the U.S. government's official web portal to all federal, state and local government web resources and services.